Observation data for Dimmitt on 11/17/2019      Previous  Date       Current Mesonet Observations  Soil Data  Daily Summary Page  Observations in Plain Language
KDMS 170600Z 18005KT 06/00 A2999 RMK A01 T00630004  RH  067%=      5-min Rain = 0
KDMS 170605Z 24002KT 06/00 A2999 RMK A01 T00570004  RH  070%=      5-min Rain = 0
KDMS 170610Z 30004KT 06/01 A30 RMK A01 T00570005  RH  070%=      5-min Rain = 0
KDMS 170615Z 31006KT 06/01 A30 RMK A01 T00560005  RH  071%=      5-min Rain = 0
KDMS 170620Z 31006KT 06/01 A30 RMK A01 T00580005  RH  070%=      5-min Rain = 0
KDMS 170625Z 30006KT 06/00 A30 RMK A01 T00590004  RH  068%=      5-min Rain = 0
KDMS 170630Z 31005KT 06/00 A30 RMK A01 T00590004  RH  069%=      5-min Rain = 0
KDMS 170635Z 32005KT 06/01 A30 RMK A01 T00600005  RH  069%=      5-min Rain = 0
KDMS 170640Z 30006KT 06/01 A3001 RMK A01 T00590005  RH  069%=      5-min Rain = 0
KDMS 170645Z 31006KT 06/01 A3001 RMK A01 T00590005  RH  069%=      5-min Rain = 0
KDMS 170650Z 32006KT 06/01 A30 RMK A01 T00580005  RH  069%=      5-min Rain = 0
KDMS 170655Z 33006KT 06/00 A30 RMK A01 T00560004  RH  070%=      5-min Rain = 0
KDMS 170700Z 33007KT 05/01 A3001 RMK A01 T00540005  RH  071%=      5-min Rain = 0
KDMS 170705Z 35008KT 06/01 A30 RMK A01 T00580005  RH  070%=      5-min Rain = 0
KDMS 170710Z 35010KT 06/01 A3001 RMK A01 T00610005  RH  068%=      5-min Rain = 0
KDMS 170715Z 35011KT 06/01 A3001 RMK A01 T00640005  RH  067%=      5-min Rain = 0
KDMS 170720Z 35012KT 07/01 A3002 RMK A01 T00690005  RH  064%=      5-min Rain = 0
KDMS 170725Z 00012KT 07/00 A3002 RMK A01 T00710004  RH  063%=      5-min Rain = 0
KDMS 170730Z 00013G18KT 08/00 A3001 RMK A01 T00780002  RH  059%=      5-min Rain = 0
KDMS 170735Z 00017KT 09/M00 A3001 RMK A01 T00891004  RH  053%=      5-min Rain = 0
KDMS 170740Z 00018G24KT 09/M01 A3001 RMK A01 T00941009  RH  049%=      5-min Rain = 0
KDMS 170745Z 00019G25KT 10/M01 A3001 RMK A01 T00961012  RH  047%=      5-min Rain = 0
KDMS 170750Z 00021G26KT 10/M01 A3001 RMK A01 T00971014  RH  046%=      5-min Rain = 0
KDMS 170755Z 00023G29KT 10/M02 A3002 RMK A01 T00981015  RH  046%=      5-min Rain = 0
KDMS 170800Z 00024G30KT 10/M02 A3002 RMK A01 T00991017  RH  045%=      5-min Rain = 0
KDMS 170805Z 00023G30KT 10/M02 A3002 RMK A01 T00971018  RH  045%=      5-min Rain = 0
KDMS 170810Z 36022G28KT 10/M02 A3003 RMK A01 T00951018  RH  045%=      5-min Rain = 0
KDMS 170815Z 00023G29KT 10/M02 A3003 RMK A01 T00951019  RH  045%=      5-min Rain = 0
KDMS 170820Z 36023KT 09/M02 A3003 RMK A01 T00941019  RH  045%=      5-min Rain = 0
KDMS 170825Z 36023G29KT 09/M02 A3004 RMK A01 T00931020  RH  046%=      5-min Rain = 0
KDMS 170830Z 00024G32KT 09/M02 A3003 RMK A01 T00941019  RH  045%=      5-min Rain = 0
KDMS 170835Z 01022G28KT 09/M02 A3003 RMK A01 T00921018  RH  046%=      5-min Rain = 0
KDMS 170840Z 00023G28KT 09/M02 A3004 RMK A01 T00921018  RH  046%=      5-min Rain = 0
KDMS 170845Z 36023G32KT 09/M02 A3005 RMK A01 T00891018  RH  047%=      5-min Rain = 0
KDMS 170850Z 36027G35KT 09/M02 A3005 RMK A01 T00881018  RH  048%=      5-min Rain = 0
KDMS 170855Z 00028G35KT 09/M02 A3005 RMK A01 T00861017  RH  049%=      5-min Rain = 0
KDMS 170900Z 00025G31KT 08/M02 A3006 RMK A01 T00831016  RH  050%=      5-min Rain = 0
KDMS 170905Z 36026G35KT 08/M01 A3006 RMK A01 T00801014  RH  052%=      5-min Rain = 0
KDMS 170910Z 36024G31KT 08/M01 A3006 RMK A01 T00791013  RH  053%=      5-min Rain = 0
KDMS 170915Z 00024G29KT 08/M01 A3006 RMK A01 T00761012  RH  054%=      5-min Rain = 0
KDMS 170920Z 00022G28KT 07/M01 A3006 RMK A01 T00741011  RH  055%=      5-min Rain = 0
KDMS 170925Z 00020G25KT 07/M01 A3006 RMK A01 T00721011  RH  056%=      5-min Rain = 0
KDMS 170930Z 01019G24KT 07/M01 A3006 RMK A01 T00701010  RH  057%=      5-min Rain = 0
KDMS 170935Z 00020G25KT 07/M01 A3007 RMK A01 T00691010  RH  058%=      5-min Rain = 0
KDMS 170940Z 00020G26KT 07/M01 A3007 RMK A01 T00681010  RH  058%=      5-min Rain = 0
KDMS 170945Z 00020G28KT 07/M01 A3007 RMK A01 T00661010  RH  059%=      5-min Rain = 0
KDMS 170950Z 00018G24KT 06/M01 A3008 RMK A01 T00641009  RH  060%=      5-min Rain = 0
KDMS 170955Z 00019G24KT 06/M01 A3008 RMK A01 T00631009  RH  061%=      5-min Rain = 0
KDMS 171000Z 00020G26KT 06/M01 A3008 RMK A01 T00621008  RH  062%=      5-min Rain = 0
KDMS 171005Z 00020KT 06/M01 A3008 RMK A01 T00621007  RH  062%=      5-min Rain = 0
KDMS 171010Z 00019G24KT 06/M01 A3009 RMK A01 T00601007  RH  063%=      5-min Rain = 0
KDMS 171015Z 00021KT 06/M01 A3009 RMK A01 T00601006  RH  063%=      5-min Rain = 0
KDMS 171020Z 00018G25KT 06/M01 A3009 RMK A01 T00581006  RH  064%=      5-min Rain = 0
KDMS 171025Z 00018G23KT 06/M01 A3009 RMK A01 T00571005  RH  065%=      5-min Rain = 0
KDMS 171030Z 00018G24KT 06/M01 A3009 RMK A01 T00561005  RH  065%=      5-min Rain = 0
KDMS 171035Z 01017KT 06/M01 A3009 RMK A01 T00551005  RH  066%=      5-min Rain = 0
KDMS 171040Z 01017KT 05/M01 A3009 RMK A01 T00541005  RH  067%=      5-min Rain = 0
KDMS 171045Z 00017KT 05/M00 A3009 RMK A01 T00531004  RH  067%=      5-min Rain = 0
KDMS 171050Z 00017KT 05/M00 A301 RMK A01 T00521004  RH  068%=      5-min Rain = 0
KDMS 171055Z 00017KT 05/M00 A301 RMK A01 T00511004  RH  068%=      5-min Rain = 0
KDMS 171100Z 00016KT 05/M00 A301 RMK A01 T00511004  RH  069%=      5-min Rain = 0
KDMS 171105Z 00017G22KT 05/M00 A3011 RMK A01 T00501003  RH  069%=      5-min Rain = 0
KDMS 171110Z 00017KT 05/M00 A3011 RMK A01 T00491003  RH  070%=      5-min Rain = 0
KDMS 171115Z 00018KT 05/M00 A3011 RMK A01 T00491003  RH  070%=      5-min Rain = 0
KDMS 171120Z 00019G24KT 05/M00 A3011 RMK A01 T00491002  RH  070%=      5-min Rain = 0
KDMS 171125Z 00019G24KT 05/M00 A3011 RMK A01 T00491002  RH  070%=      5-min Rain = 0
KDMS 171130Z 00019KT 05/M00 A3012 RMK A01 T00481002  RH  071%=      5-min Rain = 0
KDMS 171135Z 00018G23KT 05/M00 A3012 RMK A01 T00481002  RH  071%=      5-min Rain = 0
KDMS 171140Z 00018G23KT 05/M00 A3013 RMK A01 T00471002  RH  072%=      5-min Rain = 0
KDMS 171145Z 00018KT 05/M00 A3013 RMK A01 T00471002  RH  072%=      5-min Rain = 0
KDMS 171150Z 00019KT 05/M00 A3013 RMK A01 T00461001  RH  072%=      5-min Rain = 0
KDMS 171155Z 00017KT 05/M00 A3013 RMK A01 T00461001  RH  072%=      5-min Rain = 0
KDMS 171200Z 00017KT 05/M00 A3014 RMK A01 T00451001  RH  073%=      5-min Rain = 0
KDMS 171205Z 00017KT 05/M00 A3014 RMK A01 T00451001  RH  073%=      5-min Rain = 0
KDMS 171210Z 00017KT 04/M00 A3014 RMK A01 T00441001  RH  073%=      5-min Rain = 0
KDMS 171215Z 00016G21KT 04/M00 A3015 RMK A01 T00431001  RH  074%=      5-min Rain = 0
KDMS 171220Z 00016KT 04/M00 A3015 RMK A01 T00421001  RH  074%=      5-min Rain = 0
KDMS 171225Z 00016KT 04/M00 A3015 RMK A01 T00421001  RH  074%=      5-min Rain = 0
KDMS 171230Z 00016G21KT 04/M00 A3016 RMK A01 T00411001  RH  075%=      5-min Rain = 0
KDMS 171235Z 00015KT 04/00 A3016 RMK A01 T004000-0  RH  076%=      5-min Rain = 0
KDMS 171240Z 00015G22KT 04/00 A3016 RMK A01 T00400001  RH  077%=      5-min Rain = 0
KDMS 171245Z 00015KT 04/00 A3016 RMK A01 T00400001  RH  077%=      5-min Rain = 0
KDMS 171250Z 00017KT 04/00 A3016 RMK A01 T00400002  RH  077%=      5-min Rain = 0
KDMS 171255Z 00017KT 04/00 A3016 RMK A01 T00410003  RH  077%=      5-min Rain = 0
KDMS 171300Z 00016G21KT 04/00 A3017 RMK A01 T00390003  RH  078%=      5-min Rain = 0
KDMS 171305Z 00015G20KT 04/00 A3017 RMK A01 T00390003  RH  079%=      5-min Rain = 0
KDMS 171310Z 00016G21KT 04/00 A3017 RMK A01 T00380004  RH  079%=      5-min Rain = 0
KDMS 171315Z 00014G20KT 04/00 A3018 RMK A01 T00380004  RH  079%=      5-min Rain = 0
KDMS 171320Z 00014KT 04/00 A3018 RMK A01 T00370004  RH  080%=      5-min Rain = 0
KDMS 171325Z 00014G19KT 04/00 A3018 RMK A01 T00370004  RH  080%=      5-min Rain = 0
KDMS 171330Z 00014KT 04/00 A3018 RMK A01 T00360004  RH  081%=      5-min Rain = 0
KDMS 171335Z 00015G20KT 04/00 A3018 RMK A01 T00360004  RH  081%=      5-min Rain = 0
KDMS 171340Z 00014G19KT 04/01 A3018 RMK A01 T00360005  RH  081%=      5-min Rain = 0
KDMS 171345Z 00015G21KT 04/01 A3018 RMK A01 T00370005  RH  081%=      5-min Rain = 0
KDMS 171350Z 00015G20KT 04/01 A3019 RMK A01 T00370006  RH  081%=      5-min Rain = 0
KDMS 171355Z 00014G21KT 04/01 A3019 RMK A01 T00380006  RH  081%=      5-min Rain = 0
KDMS 171400Z 00014KT 04/01 A3019 RMK A01 T00380007  RH  081%=      5-min Rain = 0
KDMS 171405Z 00015KT 04/01 A3019 RMK A01 T00400007  RH  080%=      5-min Rain = 0
KDMS 171410Z 00015KT 04/01 A3019 RMK A01 T00410008  RH  080%=      5-min Rain = 0
KDMS 171415Z 01014KT 04/01 A3019 RMK A01 T00420009  RH  080%=      5-min Rain = 0
KDMS 171420Z 01015G21KT 04/01 A3019 RMK A01 T00440010  RH  080%=      5-min Rain = 0
KDMS 171425Z 01016KT 05/01 A3019 RMK A01 T00450011  RH  080%=      5-min Rain = 0
KDMS 171430Z 01016G21KT 05/01 A302 RMK A01 T00470012  RH  079%=      5-min Rain = 0
KDMS 171435Z 00015G20KT 05/01 A302 RMK A01 T00490013  RH  079%=      5-min Rain = 0
KDMS 171440Z 00015G20KT 05/01 A302 RMK A01 T00510014  RH  078%=      5-min Rain = 0
KDMS 171445Z 00016G21KT 05/01 A302 RMK A01 T00520014  RH  078%=      5-min Rain = 0
KDMS 171450Z 00016G23KT 05/02 A302 RMK A01 T00540015  RH  077%=      5-min Rain = 0
KDMS 171455Z 00017KT 06/02 A302 RMK A01 T00550015  RH  077%=      5-min Rain = 0
KDMS 171500Z 00018KT 06/02 A302 RMK A01 T00560016  RH  076%=      5-min Rain = 0
KDMS 171505Z 00018KT 06/02 A302 RMK A01 T00580016  RH  076%=      5-min Rain = 0
KDMS 171510Z 01016G21KT 06/02 A302 RMK A01 T00600017  RH  075%=      5-min Rain = 0
KDMS 171515Z 01016G21KT 06/02 A302 RMK A01 T00620017  RH  074%=      5-min Rain = 0
KDMS 171520Z 01016G21KT 06/02 A302 RMK A01 T00640018  RH  074%=      5-min Rain = 0
KDMS 171525Z 01015KT 07/02 A3021 RMK A01 T00650018  RH  073%=      5-min Rain = 0
KDMS 171530Z 01016KT 07/02 A3021 RMK A01 T00660018  RH  073%=      5-min Rain = 0
KDMS 171535Z 01016KT 07/02 A3021 RMK A01 T00680018  RH  072%=      5-min Rain = 0
KDMS 171540Z 01015KT 07/02 A3021 RMK A01 T00700019  RH  071%=      5-min Rain = 0
KDMS 171545Z 01016KT 07/02 A3021 RMK A01 T00720019  RH  070%=      5-min Rain = 0
KDMS 171550Z 00016KT 07/02 A3021 RMK A01 T00740019  RH  069%=      5-min Rain = 0
KDMS 171555Z 01014KT 08/02 A3021 RMK A01 T00750020  RH  069%=      5-min Rain = 0
KDMS 171600Z 01016KT 08/02 A3021 RMK A01 T00780020  RH  068%=      5-min Rain = 0
KDMS 171605Z 01015KT 08/02 A3021 RMK A01 T00790020  RH  067%=      5-min Rain = 0
KDMS 171610Z 02014G19KT 08/02 A3021 RMK A01 T00800020  RH  067%=      5-min Rain = 0
KDMS 171615Z 01015G20KT 08/02 A3021 RMK A01 T00810019  RH  066%=      5-min Rain = 0
KDMS 171620Z 01013KT 08/02 A3021 RMK A01 T00820020  RH  066%=      5-min Rain = 0
KDMS 171625Z 02012KT 09/02 A3021 RMK A01 T00860020  RH  064%=      5-min Rain = 0
KDMS 171630Z 01013KT 09/02 A3021 RMK A01 T00880021  RH  064%=      5-min Rain = 0
KDMS 171635Z 02012KT 09/02 A3021 RMK A01 T00870019  RH  063%=      5-min Rain = 0
KDMS 171640Z 01012KT 09/02 A3021 RMK A01 T00890020  RH  063%=      5-min Rain = 0
KDMS 171645Z 01011KT 09/02 A3021 RMK A01 T00910020  RH  062%=      5-min Rain = 0
KDMS 171650Z 01010KT 09/02 A3021 RMK A01 T00910019  RH  062%=      5-min Rain = 0
KDMS 171655Z 03010KT 09/02 A3021 RMK A01 T00930020  RH  061%=      5-min Rain = 0
KDMS 171700Z 02009G15KT 10/02 A3021 RMK A01 T00950022  RH  061%=      5-min Rain = 0
KDMS 171705Z 01011KT 10/02 A302 RMK A01 T00960021  RH  060%=      5-min Rain = 0
KDMS 171710Z 01009KT 10/02 A302 RMK A01 T00970021  RH  060%=      5-min Rain = 0
KDMS 171715Z 01008KT 10/02 A302 RMK A01 T00970022  RH  060%=      5-min Rain = 0
KDMS 171720Z 02008KT 10/02 A302 RMK A01 T00980021  RH  060%=      5-min Rain = 0
KDMS 171725Z 02008KT 10/02 A302 RMK A01 T01030024  RH  059%=      5-min Rain = 0
KDMS 171730Z 02009G14KT 10/02 A302 RMK A01 T01030023  RH  058%=      5-min Rain = 0
KDMS 171735Z 02009KT 10/02 A3019 RMK A01 T01030021  RH  058%=      5-min Rain = 0
KDMS 171740Z 02009G15KT 10/02 A3019 RMK A01 T01040023  RH  058%=      5-min Rain = 0
KDMS 171745Z 01009KT 11/02 A3019 RMK A01 T01060022  RH  057%=      5-min Rain = 0
KDMS 171750Z 02010KT 11/02 A3019 RMK A01 T01050021  RH  057%=      5-min Rain = 0
KDMS 171755Z 02009KT 11/02 A3019 RMK A01 T01050022  RH  057%=      5-min Rain = 0
KDMS 171800Z 00008KT 11/02 A3019 RMK A01 T01090022  RH  056%=      5-min Rain = 0
KDMS 171805Z 01010KT 11/02 A3019 RMK A01 T01090023  RH  056%=      5-min Rain = 0
KDMS 171810Z 01008G13KT 11/03 A3019 RMK A01 T01120025  RH  056%=      5-min Rain = 0
KDMS 171815Z 35010KT 11/02 A3019 RMK A01 T01130023  RH  055%=      5-min Rain = 0
KDMS 171820Z 00011KT 11/02 A3019 RMK A01 T01120022  RH  055%=      5-min Rain = 0
KDMS 171825Z 02012KT 11/02 A3019 RMK A01 T01130023  RH  055%=      5-min Rain = 0
KDMS 171830Z 01011G16KT 11/02 A3019 RMK A01 T01130023  RH  055%=      5-min Rain = 0
KDMS 171835Z 01012KT 12/02 A3018 RMK A01 T01150023  RH  054%=      5-min Rain = 0
KDMS 171840Z 35012KT 12/02 A3018 RMK A01 T01150023  RH  054%=      5-min Rain = 0
KDMS 171845Z 01012KT 12/02 A3018 RMK A01 T01180024  RH  053%=      5-min Rain = 0
KDMS 171850Z 01012G18KT 12/02 A3018 RMK A01 T01190024  RH  053%=      5-min Rain = 0
KDMS 171855Z 36013G18KT 12/02 A3018 RMK A01 T01190020  RH  052%=      5-min Rain = 0
KDMS 171900Z 00011KT 12/02 A3018 RMK A01 T01200022  RH  052%=      5-min Rain = 0
KDMS 171905Z 36009G14KT 12/02 A3017 RMK A01 T01200021  RH  051%=      5-min Rain = 0
KDMS 171910Z 36011G17KT 12/02 A3016 RMK A01 T01220020  RH  050%=      5-min Rain = 0
KDMS 171915Z 00007KT 12/02 A3016 RMK A01 T01230020  RH  050%=      5-min Rain = 0
KDMS 171920Z 35009KT 12/02 A3015 RMK A01 T01230018  RH  049%=      5-min Rain = 0
KDMS 171925Z 00007G12KT 12/02 A3015 RMK A01 T01220018  RH  050%=      5-min Rain = 0
KDMS 171930Z 00006KT 13/02 A3015 RMK A01 T01250019  RH  049%=      5-min Rain = 0
KDMS 171935Z 35004KT 12/02 A3015 RMK A01 T01240017  RH  049%=      5-min Rain = 0
KDMS 171940Z 01006G14KT 13/02 A3014 RMK A01 T01270018  RH  048%=      5-min Rain = 0
KDMS 171945Z 00008KT 13/02 A3014 RMK A01 T01280018  RH  048%=      5-min Rain = 0
KDMS 171950Z 03006KT 13/02 A3014 RMK A01 T01260016  RH  048%=      5-min Rain = 0
KDMS 171955Z 35005G10KT 13/02 A3013 RMK A01 T01260017  RH  048%=      5-min Rain = 0
KDMS 172000Z 03004KT 13/02 A3013 RMK A01 T01280019  RH  048%=      5-min Rain = 0
KDMS 172005Z 35006G12KT 13/02 A3013 RMK A01 T01290016  RH  047%=      5-min Rain = 0
KDMS 172010Z 34004G9KT 13/02 A3013 RMK A01 T01280015  RH  047%=      5-min Rain = 0
KDMS 172015Z 03004KT 13/01 A3013 RMK A01 T01290014  RH  046%=      5-min Rain = 0
KDMS 172020Z 02004KT 13/02 A3013 RMK A01 T01300015  RH  046%=      5-min Rain = 0
KDMS 172025Z 32004KT 13/02 A3012 RMK A01 T01310016  RH  046%=      5-min Rain = 0
KDMS 172030Z 34004KT 13/02 A3012 RMK A01 T01310018  RH  047%=      5-min Rain = 0
KDMS 172035Z 35004KT 13/02 A3011 RMK A01 T01340019  RH  046%=      5-min Rain = 0
KDMS 172040Z 32004KT 13/01 A3011 RMK A01 T01330014  RH  045%=      5-min Rain = 0
KDMS 172045Z 35001KT 13/02 A3011 RMK A01 T01340016  RH  045%=      5-min Rain = 0
KDMS 172050Z 34003KT 14/02 A3011 RMK A01 T01360015  RH  044%=      5-min Rain = 0
KDMS 172055Z 34003KT 13/01 A3011 RMK A01 T01330013  RH  045%=      5-min Rain = 0
KDMS 172100Z 04004KT 13/01 A3011 RMK A01 T01340014  RH  045%=      5-min Rain = 0
KDMS 172105Z 05003KT 13/01 A3011 RMK A01 T01330008  RH  043%=      5-min Rain = 0
KDMS 172110Z 07001KT 13/01 A3011 RMK A01 T01340009  RH  043%=      5-min Rain = 0
KDMS 172115Z 35002KT 14/01 A301 RMK A01 T01370010  RH  043%=      5-min Rain = 0
KDMS 172120Z 36003KT 14/01 A301 RMK A01 T01350006  RH  042%=      5-min Rain = 0
KDMS 172125Z 27003KT 14/01 A301 RMK A01 T01360008  RH  042%=      5-min Rain = 0
KDMS 172130Z 28001KT 14/01 A3009 RMK A01 T01390011  RH  042%=      5-min Rain = 0
KDMS 172135Z 30001KT 14/01 A301 RMK A01 T01430009  RH  041%=      5-min Rain = 0
KDMS 172140Z 36002KT 14/01 A301 RMK A01 T01410007  RH  041%=      5-min Rain = 0
KDMS 172145Z 34003KT 14/01 A301 RMK A01 T01370009  RH  042%=      5-min Rain = 0
KDMS 172150Z 29002KT 14/01 A301 RMK A01 T01370007  RH  042%=      5-min Rain = 0
KDMS 172155Z 24002KT 14/01 A301 RMK A01 T01390009  RH  042%=      5-min Rain = 0
KDMS 172200Z 22002KT 14/01 A301 RMK A01 T01410010  RH  042%=      5-min Rain = 0
KDMS 172205Z 21001KT 14/01 A301 RMK A01 T01430010  RH  041%=      5-min Rain = 0
KDMS 172210Z 21003KT 14/01 A301 RMK A01 T01430013  RH  042%=      5-min Rain = 0
KDMS 172215Z 21002KT 14/01 A301 RMK A01 T01370011  RH  043%=      5-min Rain = 0
KDMS 172220Z 19001KT 14/01 A301 RMK A01 T01400010  RH  042%=      5-min Rain = 0
KDMS 172225Z 20001KT 14/01 A301 RMK A01 T01410012  RH  042%=      5-min Rain = 0
KDMS 172230Z 21001KT 14/01 A301 RMK A01 T01420011  RH  041%=      5-min Rain = 0
KDMS 172235Z 00000KT 15/01 A301 RMK A01 T01450011  RH  040%=      5-min Rain = 0
KDMS 172240Z 21000KT 15/01 A3011 RMK A01 T01480011  RH  040%=      5-min Rain = 0
KDMS 172245Z 24003KT 14/02 A3011 RMK A01 T01440015  RH  042%=      5-min Rain = 0
KDMS 172250Z 28003KT 14/02 A3011 RMK A01 T01370017  RH  045%=      5-min Rain = 0
KDMS 172255Z 29004KT 14/01 A3011 RMK A01 T01350014  RH  044%=      5-min Rain = 0
KDMS 172300Z 28003KT 13/01 A3011 RMK A01 T01340013  RH  045%=      5-min Rain = 0
KDMS 172305Z 25005KT 13/02 A3011 RMK A01 T01310019  RH  047%=      5-min Rain = 0
KDMS 172310Z 24005KT 13/02 A3011 RMK A01 T01250023  RH  050%=      5-min Rain = 0
KDMS 172315Z 24005KT 12/02 A3011 RMK A01 T01220023  RH  052%=      5-min Rain = 0
KDMS 172320Z 24005KT 12/02 A3011 RMK A01 T01180024  RH  053%=      5-min Rain = 0
KDMS 172325Z 24005KT 11/02 A3011 RMK A01 T01140022  RH  054%=      5-min Rain = 0
KDMS 172330Z 25005KT 11/02 A3011 RMK A01 T01110019  RH  054%=      5-min Rain = 0
KDMS 172335Z 25004KT 11/02 A3011 RMK A01 T01100018  RH  054%=      5-min Rain = 0
KDMS 172340Z 25004KT 11/02 A3011 RMK A01 T01060015  RH  054%=      5-min Rain = 0
KDMS 172345Z 24004KT 10/02 A3011 RMK A01 T01030015  RH  055%=      5-min Rain = 0
KDMS 172350Z 23003KT 10/01 A3011 RMK A01 T00990013  RH  056%=      5-min Rain = 0
KDMS 172355Z 22003KT 09/01 A3011 RMK A01 T00940013  RH  058%=      5-min Rain = 0
KDMS 180000Z 22002KT 09/01 A3011 RMK A01 T00930014  RH  059%=      5-min Rain = 0
KDMS 180005Z 22002KT 09/02 A301 RMK A01 T00930017  RH  060%=      5-min Rain = 0
KDMS 180010Z 20002KT 09/02 A301 RMK A01 T00920019  RH  061%=      5-min Rain = 0
KDMS 180015Z 19003KT 10/01 A301 RMK A01 T00950013  RH  058%=      5-min Rain = 0
KDMS 180020Z 20003KT 10/01 A301 RMK A01 T00950011  RH  056%=      5-min Rain = 0
KDMS 180025Z 20002KT 09/01 A301 RMK A01 T00920011  RH  058%=      5-min Rain = 0
KDMS 180030Z 20003KT 09/01 A301 RMK A01 T00920011  RH  058%=      5-min Rain = 0
KDMS 180035Z 19003KT 09/01 A301 RMK A01 T00900011  RH  058%=      5-min Rain = 0
KDMS 180040Z 19004KT 09/01 A301 RMK A01 T00850011  RH  060%=      5-min Rain = 0
KDMS 180045Z 19005KT 08/01 A301 RMK A01 T00810012  RH  062%=      5-min Rain = 0
KDMS 180050Z 19005KT 08/01 A3011 RMK A01 T00790013  RH  064%=      5-min Rain = 0
KDMS 180055Z 20004KT 08/02 A3011 RMK A01 T00780017  RH  066%=      5-min Rain = 0
KDMS 180100Z 19004KT 08/01 A3011 RMK A01 T00790013  RH  064%=      5-min Rain = 0
KDMS 180105Z 19003KT 08/01 A3011 RMK A01 T00790011  RH  063%=      5-min Rain = 0
KDMS 180110Z 19002KT 08/01 A3011 RMK A01 T00770010  RH  063%=      5-min Rain = 0
KDMS 180115Z 19003KT 08/01 A3011 RMK A01 T00760010  RH  064%=      5-min Rain = 0
KDMS 180120Z 19003KT 08/01 A3011 RMK A01 T00770011  RH  064%=      5-min Rain = 0
KDMS 180125Z 19004KT 08/01 A3011 RMK A01 T00790011  RH  063%=      5-min Rain = 0
KDMS 180130Z 19004KT 08/01 A3011 RMK A01 T00780011  RH  063%=      5-min Rain = 0
KDMS 180135Z 19004KT 08/01 A3011 RMK A01 T00760010  RH  064%=      5-min Rain = 0
KDMS 180140Z 19004KT 08/01 A3011 RMK A01 T00750011  RH  065%=      5-min Rain = 0
KDMS 180145Z 19004KT 07/01 A3011 RMK A01 T00740010  RH  065%=      5-min Rain = 0
KDMS 180150Z 18004KT 07/01 A3011 RMK A01 T00730011  RH  066%=      5-min Rain = 0
KDMS 180155Z 17004KT 07/01 A3011 RMK A01 T00710009  RH  065%=      5-min Rain = 0
KDMS 180200Z 17004KT 07/01 A3011 RMK A01 T00710008  RH  065%=      5-min Rain = 0
KDMS 180205Z 18004KT 07/01 A3011 RMK A01 T00710007  RH  065%=      5-min Rain = 0
KDMS 180210Z 18003KT 07/01 A3011 RMK A01 T00690006  RH  065%=      5-min Rain = 0
KDMS 180215Z 17004KT 07/01 A3011 RMK A01 T00660005  RH  066%=      5-min Rain = 0
KDMS 180220Z 17004KT 07/01 A3011 RMK A01 T00660005  RH  066%=      5-min Rain = 0
KDMS 180225Z 18004KT 06/00 A3011 RMK A01 T00640004  RH  066%=      5-min Rain = 0
KDMS 180230Z 18004KT 06/00 A3011 RMK A01 T00600004  RH  068%=      5-min Rain = 0
KDMS 180235Z 18004KT 06/00 A3011 RMK A01 T00600004  RH  068%=      5-min Rain = 0
KDMS 180240Z 18004KT 06/01 A3011 RMK A01 T00610005  RH  068%=      5-min Rain = 0
KDMS 180245Z 18004KT 06/01 A3011 RMK A01 T00610005  RH  068%=      5-min Rain = 0
KDMS 180250Z 18004KT 06/01 A3011 RMK A01 T00590005  RH  069%=      5-min Rain = 0
KDMS 180255Z 18005KT 06/01 A3011 RMK A01 T00600006  RH  069%=      5-min Rain = 0
KDMS 180300Z 19005KT 06/00 A3011 RMK A01 T00580004  RH  069%=      5-min Rain = 0
KDMS 180305Z 18005KT 06/00 A3011 RMK A01 T00550004  RH  070%=      5-min Rain = 0
KDMS 180310Z 18005KT 05/00 A3011 RMK A01 T00520003  RH  071%=      5-min Rain = 0
KDMS 180315Z 18005KT 05/00 A3011 RMK A01 T00500002  RH  072%=      5-min Rain = 0
KDMS 180320Z 19004KT 05/00 A3011 RMK A01 T00480002  RH  073%=      5-min Rain = 0
KDMS 180325Z 19005KT 05/00 A3011 RMK A01 T00510004  RH  073%=      5-min Rain = 0
KDMS 180330Z 19005KT 05/00 A3011 RMK A01 T00530004  RH  072%=      5-min Rain = 0
KDMS 180335Z 18006KT 05/00 A3011 RMK A01 T00530004  RH  072%=      5-min Rain = 0
KDMS 180340Z 18006KT 05/00 A3011 RMK A01 T00480001  RH  072%=      5-min Rain = 0
KDMS 180345Z 19006KT 05/00 A3011 RMK A01 T00450002  RH  075%=      5-min Rain = 0
KDMS 180350Z 20005KT 05/01 A3011 RMK A01 T00490005  RH  074%=      5-min Rain = 0
KDMS 180355Z 19005KT 06/01 A3011 RMK A01 T00560006  RH  071%=      5-min Rain = 0
KDMS 180400Z 19005KT 06/01 A3011 RMK A01 T00600006  RH  069%=      5-min Rain = 0
KDMS 180405Z 19006KT 06/00 A3011 RMK A01 T00560004  RH  070%=      5-min Rain = 0
KDMS 180410Z 19007KT 05/M00 A301 RMK A01 T00471001  RH  072%=      5-min Rain = 0
KDMS 180415Z 19007KT 04/00 A301 RMK A01 T004000-0  RH  076%=      5-min Rain = 0
KDMS 180420Z 19007KT 04/00 A301 RMK A01 T00390001  RH  077%=      5-min Rain = 0
KDMS 180425Z 19007KT 04/00 A301 RMK A01 T00390001  RH  077%=      5-min Rain = 0
KDMS 180430Z 20007KT 04/00 A301 RMK A01 T00420001  RH  075%=      5-min Rain = 0
KDMS 180435Z 20006KT 04/00 A301 RMK A01 T003900-0  RH  076%=      5-min Rain = 0
KDMS 180440Z 21004KT 04/00 A301 RMK A01 T00420002  RH  076%=      5-min Rain = 0
KDMS 180445Z 20004KT 05/00 A301 RMK A01 T00450003  RH  075%=      5-min Rain = 0
KDMS 180450Z 21004KT 05/00 A301 RMK A01 T00470004  RH  075%=      5-min Rain = 0
KDMS 180455Z 21006KT 05/01 A301 RMK A01 T00510006  RH  074%=      5-min Rain = 0
KDMS 180500Z 20007KT 05/00 A3009 RMK A01 T00510004  RH  073%=      5-min Rain = 0
KDMS 180505Z 21007KT 05/01 A3009 RMK A01 T00480005  RH  075%=      5-min Rain = 0
KDMS 180510Z 21006KT 05/01 A3009 RMK A01 T00510008  RH  075%=      5-min Rain = 0
KDMS 180515Z 21007KT 05/01 A3009 RMK A01 T00540008  RH  073%=      5-min Rain = 0
KDMS 180520Z 21006KT 05/01 A3008 RMK A01 T00540008  RH  073%=      5-min Rain = 0
KDMS 180525Z 21006KT 05/01 A3008 RMK A01 T00540008  RH  073%=      5-min Rain = 0
KDMS 180530Z 21007KT 05/01 A3008 RMK A01 T00540008  RH  073%=      5-min Rain = 0
KDMS 180535Z 21009KT 06/01 A3008 RMK A01 T00570009  RH  072%=      5-min Rain = 0
KDMS 180540Z 21010KT 06/01 A3008 RMK A01 T00590009  RH  071%=      5-min Rain = 0
KDMS 180545Z 21010KT 06/01 A3008 RMK A01 T00630009  RH  069%=      5-min Rain = 0
KDMS 180550Z 21009KT 06/01 A3007 RMK A01 T00610009  RH  070%=      5-min Rain = 0
KDMS 180555Z 21008KT 06/01 A3007 RMK A01 T00580008  RH  071%=      5-min Rain = 0

Page generated in 0.0092 seconds.